Wilson Lisbon — 5BNU3 — position and weather

sailwx.info

Track history (hours):
 
Tides and Currents Weather Stations Pressure Air Temp Water Temp Dewpoint Dewpoint Depression Visibility Wind Speed Wind Dir Waves Ship Positions

Wilson Lisbon

Last reported at 2015-May-30 07:33 UTC. Time now 2015-May-30 08:32 UTC.
Position N 51°05' E 001°45'.

Length 90 m; draft 5.8 m.

Type: Ship. MMSI: 212376000.

Date/timePositionNaut miles runAvg speedWind from/ knotsBaromVisibWave heightAir tempDewpointWater temp
2015-May-30 07:33N 51°05' E 001°45'6 5.8
2015-May-30 06:33N 51°11' E 001°44'9 8.8
2015-May-30 05:33N 51°18' E 001°53'10 9.5
2015-May-30 04:33N 51°24' E 002°05'1010.0
2015-May-30 03:33N 51°21' E 002°20'1110.5
2015-May-30 02:33N 51°23' E 002°36'9 9.0
2015-May-30 01:33N 51°22' E 002°51'10 9.5
2015-May-30 00:32N 51°22' E 003°06'9 9.2
2015-May-29 23:33N 51°24' E 003°20'9 9.4
2015-May-29 22:33N 51°26' E 003°35'7 6.8
2015-May-29 21:33N 51°22' E 003°45'4 4.0
2015-May-29 20:33N 51°20' E 003°49'1 1.4
2015-May-29 19:34N 51°18' E 003°50'5 5.4
2015-May-29 18:33N 51°13' E 003°48'6 5.8
2015-May-29 17:34N 51°07' E 003°46'2 2.1
2015-May-29 16:30N 51°05' E 003°44'0 0.0
2015-May-29 15:30N 51°05' E 003°44'0 0.0
2015-May-29 14:30N 51°05' E 003°44'0 0.0
2015-May-29 13:33N 51°05' E 003°44'0 0.0
2015-May-29 12:30N 51°05' E 003°44'0 0.0
2015-May-29 11:33N 51°05' E 003°44'0 0.0
2015-May-29 10:33N 51°05' E 003°44'0 0.0
2015-May-29 09:33N 51°05' E 003°44'0 0.0
2015-May-29 08:33N 51°05' E 003°44'0 0.0
2015-May-29 07:33N 51°05' E 003°44'0 0.0
2015-May-29 06:33N 51°05' E 003°44'0 0.0
2015-May-29 05:33N 51°05' E 003°44'0 0.0
2015-May-29 04:33N 51°05' E 003°44'0 0.0
2015-May-29 03:33N 51°05' E 003°44'0 0.0
2015-May-29 02:33N 51°05' E 003°44'0 0.0
2015-May-29 01:33N 51°05' E 003°44'0 0.0
2015-May-29 00:30N 51°05' E 003°44'0 0.0
2015-May-28 23:33N 51°05' E 003°44'0 0.0
2015-May-28 22:33N 51°05' E 003°44'0 0.0
2015-May-28 21:33N 51°05' E 003°44'0 0.0
2015-May-28 20:33N 51°05' E 003°44'0 0.0
2015-May-28 19:33N 51°05' E 003°44'0 0.0
2015-May-28 18:33N 51°05' E 003°44'0 0.1
2015-May-28 17:34N 51°06' E 003°44'8 7.7
2015-May-28 16:34N 51°13' E 003°48'7 6.6
2015-May-28 15:34N 51°19' E 003°49'1 1.4
2015-May-28 14:33N 51°21' E 003°49'5 5.3
2015-May-28 13:33N 51°24' E 003°42'7 7.3
2015-May-28 12:33N 51°27' E 003°32'9 8.7
2015-May-28 11:33N 51°34' E 003°24'1110.4
2015-May-28 10:29N 51°44' E 003°14'3 1.5
2015-May-28 08:21N 51°46' E 003°11'5 4.5
2015-May-28 07:13N 51°46' E 003°03'41 8.6
2015-May-28 02:26N 52°17' E 002°17'10 8.6
2015-May-28 01:17N 52°26' E 002°10'6 8.2
2015-May-28 00:33N 52°31' E 002°06'8 7.6
2015-May-27 23:33N 52°38' E 002°01'7 7.0
2015-May-27 22:33N 52°44' E 001°55'7 7.0
2015-May-27 21:34N 52°49' E 001°46'7 7.0
2015-May-27 20:34N 52°53' E 001°36'7 6.9
2015-May-27 19:33N 52°56' E 001°27'7 7.5
2015-May-27 18:34N 52°60' E 001°16'8 8.4
2015-May-27 17:33N 53°04' E 001°03'  
2015-May-23 22:15N 53°52' E 001°27'5 7.1
2015-May-23 21:33N 53°56' E 001°33'379 8.3
2015-May-22 00:04N 57°46' E 010°28'4 8.8
2015-May-21 23:33N 57°47' E 010°36'7 6.2
2015-May-21 22:29N 57°43' E 010°46'1311.3
2015-May-21 21:19N 57°30' E 010°46'1111.6
2015-May-21 20:22N 57°19' E 010°45'49 8.2
2015-May-21 14:25N 56°33' E 010°14'5 5.9
2015-May-21 13:30N 56°28' E 010°10'4 0.2
2015-May-20 20:18N 56°28' E 010°03'0 0.1
2015-May-20 19:30N 56°28' E 010°03'0 0.0
2015-May-20 17:03N 56°28' E 010°03'0 0.0
2015-May-20 16:33N 56°28' E 010°03'6 0.7
2015-May-20 08:33N 56°30' E 010°13'  
Track history (hours):
 
Tides and Currents Weather Stations Pressure Air Temp Water Temp Dewpoint Dewpoint Depression Visibility Wind Speed Wind Dir Waves Ship Positions

Wilson Lisbon

Last reported at 2015-May-30 07:33 UTC. Time now 2015-May-30 08:32 UTC.
Position N 51°05' E 001°45'.

Length 90 m; draft 5.8 m.

Type: Ship. MMSI: 212376000.

Date/timePositionNaut miles runAvg speedWind from/ knotsBaromVisibWave heightAir tempDewpointWater temp
2015-May-30 07:33N 51°05' E 001°45'6 5.8
2015-May-30 06:33N 51°11' E 001°44'9 8.8
2015-May-30 05:33N 51°18' E 001°53'10 9.5
2015-May-30 04:33N 51°24' E 002°05'1010.0
2015-May-30 03:33N 51°21' E 002°20'1110.5
2015-May-30 02:33N 51°23' E 002°36'9 9.0
2015-May-30 01:33N 51°22' E 002°51'10 9.5
2015-May-30 00:32N 51°22' E 003°06'9 9.2
2015-May-29 23:33N 51°24' E 003°20'9 9.4
2015-May-29 22:33N 51°26' E 003°35'7 6.8
2015-May-29 21:33N 51°22' E 003°45'4 4.0
2015-May-29 20:33N 51°20' E 003°49'1 1.4
2015-May-29 19:34N 51°18' E 003°50'5 5.4
2015-May-29 18:33N 51°13' E 003°48'6 5.8
2015-May-29 17:34N 51°07' E 003°46'2 2.1
2015-May-29 16:30N 51°05' E 003°44'0 0.0
2015-May-29 15:30N 51°05' E 003°44'0 0.0
2015-May-29 14:30N 51°05' E 003°44'0 0.0
2015-May-29 13:33N 51°05' E 003°44'0 0.0
2015-May-29 12:30N 51°05' E 003°44'0 0.0
2015-May-29 11:33N 51°05' E 003°44'0 0.0
2015-May-29 10:33N 51°05' E 003°44'0 0.0
2015-May-29 09:33N 51°05' E 003°44'0 0.0
2015-May-29 08:33N 51°05' E 003°44'0 0.0
2015-May-29 07:33N 51°05' E 003°44'0 0.0
2015-May-29 06:33N 51°05' E 003°44'0 0.0
2015-May-29 05:33N 51°05' E 003°44'0 0.0
2015-May-29 04:33N 51°05' E 003°44'0 0.0
2015-May-29 03:33N 51°05' E 003°44'0 0.0
2015-May-29 02:33N 51°05' E 003°44'0 0.0
2015-May-29 01:33N 51°05' E 003°44'0 0.0
2015-May-29 00:30N 51°05' E 003°44'0 0.0
2015-May-28 23:33N 51°05' E 003°44'0 0.0
2015-May-28 22:33N 51°05' E 003°44'0 0.0
2015-May-28 21:33N 51°05' E 003°44'0 0.0
2015-May-28 20:33N 51°05' E 003°44'0 0.0
2015-May-28 19:33N 51°05' E 003°44'0 0.0
2015-May-28 18:33N 51°05' E 003°44'0 0.1
2015-May-28 17:34N 51°06' E 003°44'8 7.7
2015-May-28 16:34N 51°13' E 003°48'7 6.6
2015-May-28 15:34N 51°19' E 003°49'1 1.4
2015-May-28 14:33N 51°21' E 003°49'5 5.3
2015-May-28 13:33N 51°24' E 003°42'7 7.3
2015-May-28 12:33N 51°27' E 003°32'9 8.7
2015-May-28 11:33N 51°34' E 003°24'1110.4
2015-May-28 10:29N 51°44' E 003°14'3 1.5
2015-May-28 08:21N 51°46' E 003°11'5 4.5
2015-May-28 07:13N 51°46' E 003°03'41 8.6
2015-May-28 02:26N 52°17' E 002°17'10 8.6
2015-May-28 01:17N 52°26' E 002°10'6 8.2
2015-May-28 00:33N 52°31' E 002°06'8 7.6
2015-May-27 23:33N 52°38' E 002°01'7 7.0
2015-May-27 22:33N 52°44' E 001°55'7 7.0
2015-May-27 21:34N 52°49' E 001°46'7 7.0
2015-May-27 20:34N 52°53' E 001°36'7 6.9
2015-May-27 19:33N 52°56' E 001°27'7 7.5
2015-May-27 18:34N 52°60' E 001°16'8 8.4
2015-May-27 17:33N 53°04' E 001°03'  
2015-May-23 22:15N 53°52' E 001°27'5 7.1
2015-May-23 21:33N 53°56' E 001°33'379 8.3
2015-May-22 00:04N 57°46' E 010°28'4 8.8
2015-May-21 23:33N 57°47' E 010°36'7 6.2
2015-May-21 22:29N 57°43' E 010°46'1311.3
2015-May-21 21:19N 57°30' E 010°46'1111.6
2015-May-21 20:22N 57°19' E 010°45'49 8.2
2015-May-21 14:25N 56°33' E 010°14'5 5.9
2015-May-21 13:30N 56°28' E 010°10'4 0.2
2015-May-20 20:18N 56°28' E 010°03'0 0.1
2015-May-20 19:30N 56°28' E 010°03'0 0.0
2015-May-20 17:03N 56°28' E 010°03'0 0.0
2015-May-20 16:33N 56°28' E 010°03'6 0.7
2015-May-20 08:33N 56°30' E 010°13'  

Dump ship's entire track history